sensor_id;sensor_type;location;lat;lon;timestamp;temperature;humidity
42135;DHT22;28312;43.460;11.810;2023-05-10T00:02:04;15.90;75.60
42135;DHT22;28312;43.460;11.810;2023-05-10T00:06:10;15.80;75.60
42135;DHT22;28312;43.460;11.810;2023-05-10T00:10:16;15.90;75.60
42135;DHT22;28312;43.460;11.810;2023-05-10T00:14:21;15.90;75.50
42135;DHT22;28312;43.460;11.810;2023-05-10T00:18:24;16.00;75.50
42135;DHT22;28312;43.460;11.810;2023-05-10T00:22:27;16.00;75.50
42135;DHT22;28312;43.460;11.810;2023-05-10T00:26:31;16.00;75.60
42135;DHT22;28312;43.460;11.810;2023-05-10T00:30:35;16.10;75.60
42135;DHT22;28312;43.460;11.810;2023-05-10T00:34:40;16.20;75.60
42135;DHT22;28312;43.460;11.810;2023-05-10T00:38:44;16.20;75.50
42135;DHT22;28312;43.460;11.810;2023-05-10T00:42:49;16.20;75.40
42135;DHT22;28312;43.460;11.810;2023-05-10T00:46:53;16.30;75.40
42135;DHT22;28312;43.460;11.810;2023-05-10T00:50:57;16.30;75.40
42135;DHT22;28312;43.460;11.810;2023-05-10T00:55:01;16.30;75.40
42135;DHT22;28312;43.460;11.810;2023-05-10T00:59:09;16.30;75.40
42135;DHT22;28312;43.460;11.810;2023-05-10T01:03:12;16.30;75.50
42135;DHT22;28312;43.460;11.810;2023-05-10T01:07:16;16.30;75.60
42135;DHT22;28312;43.460;11.810;2023-05-10T01:11:20;16.30;75.60
42135;DHT22;28312;43.460;11.810;2023-05-10T01:15:24;16.20;75.60
42135;DHT22;28312;43.460;11.810;2023-05-10T01:19:29;16.30;75.60
42135;DHT22;28312;43.460;11.810;2023-05-10T01:33:00;16.30;75.60
42135;DHT22;28312;43.460;11.810;2023-05-10T01:37:13;16.40;75.60
42135;DHT22;28312;43.460;11.810;2023-05-10T01:41:24;16.30;75.70
42135;DHT22;28312;43.460;11.810;2023-05-10T01:45:38;16.30;75.70
42135;DHT22;28312;43.460;11.810;2023-05-10T01:49:49;16.30;75.80
42135;DHT22;28312;43.460;11.810;2023-05-10T01:54:00;16.30;75.80
42135;DHT22;28312;43.460;11.810;2023-05-10T01:58:14;16.30;75.80
42135;DHT22;28312;43.460;11.810;2023-05-10T02:02:20;16.30;75.90
42135;DHT22;28312;43.460;11.810;2023-05-10T02:06:25;16.20;75.90
42135;DHT22;28312;43.460;11.810;2023-05-10T02:10:30;16.20;76.00
42135;DHT22;28312;43.460;11.810;2023-05-10T02:14:37;16.30;76.00
42135;DHT22;28312;43.460;11.810;2023-05-10T02:18:43;16.30;76.00
42135;DHT22;28312;43.460;11.810;2023-05-10T02:22:49;16.40;75.90
42135;DHT22;28312;43.460;11.810;2023-05-10T02:26:54;16.50;75.80
42135;DHT22;28312;43.460;11.810;2023-05-10T02:31:00;16.50;75.60
42135;DHT22;28312;43.460;11.810;2023-05-10T02:35:05;16.50;75.40
42135;DHT22;28312;43.460;11.810;2023-05-10T02:39:11;16.50;75.50
42135;DHT22;28312;43.460;11.810;2023-05-10T02:43:17;16.50;75.50
42135;DHT22;28312;43.460;11.810;2023-05-10T02:47:24;16.60;75.40
42135;DHT22;28312;43.460;11.810;2023-05-10T02:51:30;16.50;75.50
42135;DHT22;28312;43.460;11.810;2023-05-10T02:55:40;16.50;75.50
42135;DHT22;28312;43.460;11.810;2023-05-10T02:59:45;16.50;75.60
42135;DHT22;28312;43.460;11.810;2023-05-10T03:03:49;16.50;75.50
42135;DHT22;28312;43.460;11.810;2023-05-10T03:07:54;16.30;75.60
42135;DHT22;28312;43.460;11.810;2023-05-10T03:16:50;16.20;76.00
42135;DHT22;28312;43.460;11.810;2023-05-10T03:20:59;16.10;76.00
42135;DHT22;28312;43.460;11.810;2023-05-10T03:25:06;16.00;76.10
42135;DHT22;28312;43.460;11.810;2023-05-10T03:29:13;16.00;76.10
42135;DHT22;28312;43.460;11.810;2023-05-10T03:33:18;15.90;76.20
42135;DHT22;28312;43.460;11.810;2023-05-10T03:37:22;16.00;76.20
42135;DHT22;28312;43.460;11.810;2023-05-10T03:41:26;16.00;76.10
42135;DHT22;28312;43.460;11.810;2023-05-10T03:45:29;15.90;76.20
42135;DHT22;28312;43.460;11.810;2023-05-10T03:49:34;15.90;76.40
42135;DHT22;28312;43.460;11.810;2023-05-10T03:53:39;15.80;76.50
42135;DHT22;28312;43.460;11.810;2023-05-10T03:57:42;15.80;76.60
42135;DHT22;28312;43.460;11.810;2023-05-10T04:01:46;15.80;76.60
42135;DHT22;28312;43.460;11.810;2023-05-10T04:06:01;15.70;76.70
42135;DHT22;28312;43.460;11.810;2023-05-10T04:10:07;15.70;76.80
42135;DHT22;28312;43.460;11.810;2023-05-10T04:14:10;15.70;76.70
42135;DHT22;28312;43.460;11.810;2023-05-10T04:18:13;15.80;76.70
42135;DHT22;28312;43.460;11.810;2023-05-10T04:22:17;15.80;76.70
42135;DHT22;28312;43.460;11.810;2023-05-10T04:26:20;15.70;76.80
42135;DHT22;28312;43.460;11.810;2023-05-10T04:30:24;15.70;76.80
42135;DHT22;28312;43.460;11.810;2023-05-10T04:34:28;15.70;76.80
42135;DHT22;28312;43.460;11.810;2023-05-10T04:38:31;15.80;76.80
42135;DHT22;28312;43.460;11.810;2023-05-10T04:42:35;15.80;76.70
42135;DHT22;28312;43.460;11.810;2023-05-10T04:46:38;15.80;76.70
42135;DHT22;28312;43.460;11.810;2023-05-10T04:50:41;15.80;76.80
42135;DHT22;28312;43.460;11.810;2023-05-10T04:54:45;15.90;76.80
42135;DHT22;28312;43.460;11.810;2023-05-10T04:58:50;15.90;76.80
42135;DHT22;28312;43.460;11.810;2023-05-10T05:02:53;16.00;76.70
42135;DHT22;28312;43.460;11.810;2023-05-10T05:06:56;15.90;76.70
42135;DHT22;28312;43.460;11.810;2023-05-10T05:11:00;15.90;76.80
42135;DHT22;28312;43.460;11.810;2023-05-10T05:15:03;15.90;76.80
42135;DHT22;28312;43.460;11.810;2023-05-10T05:19:10;16.00;76.90
42135;DHT22;28312;43.460;11.810;2023-05-10T05:23:14;16.00;76.90
42135;DHT22;28312;43.460;11.810;2023-05-10T05:27:18;16.10;76.80
42135;DHT22;28312;43.460;11.810;2023-05-10T05:31:22;16.20;76.80
42135;DHT22;28312;43.460;11.810;2023-05-10T05:35:26;16.20;76.80
42135;DHT22;28312;43.460;11.810;2023-05-10T05:39:29;16.20;76.80
42135;DHT22;28312;43.460;11.810;2023-05-10T05:43:33;16.20;76.60
42135;DHT22;28312;43.460;11.810;2023-05-10T05:47:42;16.20;76.60
42135;DHT22;28312;43.460;11.810;2023-05-10T05:51:45;16.20;76.60
42135;DHT22;28312;43.460;11.810;2023-05-10T05:55:56;16.20;76.60
42135;DHT22;28312;43.460;11.810;2023-05-10T06:00:00;16.20;76.90
42135;DHT22;28312;43.460;11.810;2023-05-10T06:04:14;16.30;77.10
42135;DHT22;28312;43.460;11.810;2023-05-10T06:08:20;16.40;77.10
42135;DHT22;28312;43.460;11.810;2023-05-10T06:12:23;16.40;77.10
42135;DHT22;28312;43.460;11.810;2023-05-10T06:16:27;16.50;77.10
42135;DHT22;28312;43.460;11.810;2023-05-10T06:20:30;16.60;77.20
42135;DHT22;28312;43.460;11.810;2023-05-10T06:24:34;16.70;77.10
42135;DHT22;28312;43.460;11.810;2023-05-10T06:28:38;16.70;77.00
42135;DHT22;28312;43.460;11.810;2023-05-10T06:32:42;16.80;76.90
42135;DHT22;28312;43.460;11.810;2023-05-10T06:36:46;16.90;76.90
42135;DHT22;28312;43.460;11.810;2023-05-10T06:40:50;16.90;76.80
42135;DHT22;28312;43.460;11.810;2023-05-10T06:44:53;17.00;76.50
42135;DHT22;28312;43.460;11.810;2023-05-10T06:48:57;17.00;76.60
42135;DHT22;28312;43.460;11.810;2023-05-10T06:53:00;17.00;76.60
42135;DHT22;28312;43.460;11.810;2023-05-10T06:57:04;17.00;76.70
42135;DHT22;28312;43.460;11.810;2023-05-10T07:01:25;17.10;76.70
42135;DHT22;28312;43.460;11.810;2023-05-10T07:05:29;17.10;76.70
42135;DHT22;28312;43.460;11.810;2023-05-10T07:09:33;17.10;76.60
42135;DHT22;28312;43.460;11.810;2023-05-10T07:13:36;17.10;76.70
42135;DHT22;28312;43.460;11.810;2023-05-10T07:17:42;17.10;76.60
42135;DHT22;28312;43.460;11.810;2023-05-10T07:21:47;17.10;76.40
42135;DHT22;28312;43.460;11.810;2023-05-10T07:25:51;17.20;76.70
42135;DHT22;28312;43.460;11.810;2023-05-10T07:29:55;17.20;76.80
42135;DHT22;28312;43.460;11.810;2023-05-10T07:34:00;17.20;76.80
42135;DHT22;28312;43.460;11.810;2023-05-10T07:38:05;17.30;77.00
42135;DHT22;28312;43.460;11.810;2023-05-10T07:42:09;17.40;77.00
42135;DHT22;28312;43.460;11.810;2023-05-10T07:46:12;17.60;77.20
42135;DHT22;28312;43.460;11.810;2023-05-10T07:50:16;17.80;77.00
42135;DHT22;28312;43.460;11.810;2023-05-10T07:54:20;17.90;76.90
42135;DHT22;28312;43.460;11.810;2023-05-10T07:58:25;18.10;76.50
42135;DHT22;28312;43.460;11.810;2023-05-10T08:02:28;18.10;76.30
42135;DHT22;28312;43.460;11.810;2023-05-10T08:06:33;18.20;76.20
42135;DHT22;28312;43.460;11.810;2023-05-10T08:10:36;18.20;76.20
42135;DHT22;28312;43.460;11.810;2023-05-10T08:14:40;18.20;76.20
42135;DHT22;28312;43.460;11.810;2023-05-10T08:18:44;18.20;76.40
42135;DHT22;28312;43.460;11.810;2023-05-10T08:22:48;18.30;76.50
42135;DHT22;28312;43.460;11.810;2023-05-10T08:26:53;18.30;76.30
42135;DHT22;28312;43.460;11.810;2023-05-10T08:30:57;18.30;76.30
42135;DHT22;28312;43.460;11.810;2023-05-10T08:35:00;18.20;76.30
42135;DHT22;28312;43.460;11.810;2023-05-10T08:39:03;18.20;76.30
42135;DHT22;28312;43.460;11.810;2023-05-10T08:43:13;18.20;76.20
42135;DHT22;28312;43.460;11.810;2023-05-10T08:47:20;18.10;76.20
42135;DHT22;28312;43.460;11.810;2023-05-10T08:51:27;17.90;76.20
42135;DHT22;28312;43.460;11.810;2023-05-10T08:55:33;17.90;76.40
42135;DHT22;28312;43.460;11.810;2023-05-10T08:59:36;17.80;76.50
42135;DHT22;28312;43.460;11.810;2023-05-10T09:03:42;17.70;76.70
42135;DHT22;28312;43.460;11.810;2023-05-10T09:07:46;17.70;76.70
42135;DHT22;28312;43.460;11.810;2023-05-10T09:11:50;17.70;76.90
42135;DHT22;28312;43.460;11.810;2023-05-10T09:15:53;17.70;76.90
42135;DHT22;28312;43.460;11.810;2023-05-10T09:20:03;17.60;77.10
42135;DHT22;28312;43.460;11.810;2023-05-10T09:24:08;17.60;77.20
42135;DHT22;28312;43.460;11.810;2023-05-10T09:28:14;17.70;77.40
42135;DHT22;28312;43.460;11.810;2023-05-10T09:32:17;17.70;77.50
42135;DHT22;28312;43.460;11.810;2023-05-10T09:36:21;17.80;77.40
42135;DHT22;28312;43.460;11.810;2023-05-10T09:40:27;17.90;77.50
42135;DHT22;28312;43.460;11.810;2023-05-10T09:44:31;17.90;77.50
42135;DHT22;28312;43.460;11.810;2023-05-10T09:48:42;18.00;77.40
42135;DHT22;28312;43.460;11.810;2023-05-10T09:52:56;18.00;77.20
42135;DHT22;28312;43.460;11.810;2023-05-10T09:57:03;17.90;77.00
42135;DHT22;28312;43.460;11.810;2023-05-10T10:01:11;17.80;76.90
42135;DHT22;28312;43.460;11.810;2023-05-10T10:05:15;17.70;77.00
42135;DHT22;28312;43.460;11.810;2023-05-10T10:09:19;17.70;77.10
42135;DHT22;28312;43.460;11.810;2023-05-10T10:13:22;17.70;77.20
42135;DHT22;28312;43.460;11.810;2023-05-10T10:17:27;17.70;77.20
42135;DHT22;28312;43.460;11.810;2023-05-10T10:21:31;17.80;77.20
42135;DHT22;28312;43.460;11.810;2023-05-10T10:25:35;17.70;77.10
42135;DHT22;28312;43.460;11.810;2023-05-10T10:34:10;17.80;77.00
42135;DHT22;28312;43.460;11.810;2023-05-10T10:38:15;17.70;76.80
42135;DHT22;28312;43.460;11.810;2023-05-10T10:42:56;17.60;76.80
42135;DHT22;28312;43.460;11.810;2023-05-10T10:51:16;17.50;76.90
42135;DHT22;28312;43.460;11.810;2023-05-10T10:55:20;17.40;76.90
42135;DHT22;28312;43.460;11.810;2023-05-10T10:59:28;17.40;76.90
42135;DHT22;28312;43.460;11.810;2023-05-10T11:03:31;17.40;76.80
42135;DHT22;28312;43.460;11.810;2023-05-10T11:07:35;17.30;76.90
42135;DHT22;28312;43.460;11.810;2023-05-10T11:11:52;17.30;76.90
42135;DHT22;28312;43.460;11.810;2023-05-10T11:16:09;17.30;76.90
42135;DHT22;28312;43.460;11.810;2023-05-10T11:20:14;17.20;76.80
42135;DHT22;28312;43.460;11.810;2023-05-10T11:24:21;17.20;76.70
42135;DHT22;28312;43.460;11.810;2023-05-10T11:28:26;17.10;76.90
42135;DHT22;28312;43.460;11.810;2023-05-10T11:32:30;16.90;77.20
42135;DHT22;28312;43.460;11.810;2023-05-10T11:36:34;16.90;77.30
42135;DHT22;28312;43.460;11.810;2023-05-10T11:40:39;16.90;77.40
42135;DHT22;28312;43.460;11.810;2023-05-10T11:44:46;16.90;77.80
42135;DHT22;28312;43.460;11.810;2023-05-10T11:53:34;17.00;78.10
42135;DHT22;28312;43.460;11.810;2023-05-10T11:57:46;17.00;78.40
42135;DHT22;28312;43.460;11.810;2023-05-10T12:01:51;17.00;78.60
42135;DHT22;28312;43.460;11.810;2023-05-10T12:05:56;17.00;78.80
42135;DHT22;28312;43.460;11.810;2023-05-10T12:10:12;16.90;78.80
42135;DHT22;28312;43.460;11.810;2023-05-10T12:14:21;16.90;79.20
42135;DHT22;28312;43.460;11.810;2023-05-10T12:18:26;16.80;79.60
42135;DHT22;28312;43.460;11.810;2023-05-10T12:22:29;16.90;79.70
42135;DHT22;28312;43.460;11.810;2023-05-10T12:26:35;17.00;79.80
42135;DHT22;28312;43.460;11.810;2023-05-10T12:30:40;16.90;79.80
42135;DHT22;28312;43.460;11.810;2023-05-10T12:34:46;16.90;80.10
42135;DHT22;28312;43.460;11.810;2023-05-10T12:38:50;16.80;80.30
42135;DHT22;28312;43.460;11.810;2023-05-10T12:42:55;16.90;80.50
42135;DHT22;28312;43.460;11.810;2023-05-10T12:46:59;16.80;80.60
42135;DHT22;28312;43.460;11.810;2023-05-10T12:51:03;16.70;80.70
42135;DHT22;28312;43.460;11.810;2023-05-10T12:55:09;16.70;81.00
42135;DHT22;28312;43.460;11.810;2023-05-10T12:59:13;16.70;81.20
42135;DHT22;28312;43.460;11.810;2023-05-10T13:03:16;16.70;81.50
42135;DHT22;28312;43.460;11.810;2023-05-10T13:07:20;16.70;81.70
42135;DHT22;28312;43.460;11.810;2023-05-10T13:11:23;16.70;81.90
42135;DHT22;28312;43.460;11.810;2023-05-10T13:15:27;16.80;82.10
42135;DHT22;28312;43.460;11.810;2023-05-10T13:19:31;16.80;82.10
42135;DHT22;28312;43.460;11.810;2023-05-10T13:23:35;16.80;82.30
42135;DHT22;28312;43.460;11.810;2023-05-10T13:27:40;16.70;82.00
42135;DHT22;28312;43.460;11.810;2023-05-10T13:31:44;16.60;82.30
42135;DHT22;28312;43.460;11.810;2023-05-10T13:35:47;16.60;82.90
42135;DHT22;28312;43.460;11.810;2023-05-10T13:39:51;16.60;83.10
42135;DHT22;28312;43.460;11.810;2023-05-10T13:43:54;16.70;83.20
42135;DHT22;28312;43.460;11.810;2023-05-10T13:47:58;16.80;83.30
42135;DHT22;28312;43.460;11.810;2023-05-10T13:52:02;16.80;83.30
42135;DHT22;28312;43.460;11.810;2023-05-10T13:56:09;16.90;83.20
42135;DHT22;28312;43.460;11.810;2023-05-10T14:00:13;16.90;83.20
42135;DHT22;28312;43.460;11.810;2023-05-10T14:04:17;16.90;83.00
42135;DHT22;28312;43.460;11.810;2023-05-10T14:08:21;16.90;83.00
42135;DHT22;28312;43.460;11.810;2023-05-10T14:12:25;16.90;83.20
42135;DHT22;28312;43.460;11.810;2023-05-10T14:16:29;16.90;83.30
42135;DHT22;28312;43.460;11.810;2023-05-10T14:20:32;16.90;83.40
42135;DHT22;28312;43.460;11.810;2023-05-10T14:24:38;17.10;83.50
42135;DHT22;28312;43.460;11.810;2023-05-10T14:28:41;17.20;83.60
42135;DHT22;28312;43.460;11.810;2023-05-10T14:32:45;17.20;83.50
42135;DHT22;28312;43.460;11.810;2023-05-10T14:36:49;17.20;83.30
42135;DHT22;28312;43.460;11.810;2023-05-10T14:40:52;17.20;83.20
42135;DHT22;28312;43.460;11.810;2023-05-10T14:44:56;17.10;83.00
42135;DHT22;28312;43.460;11.810;2023-05-10T14:49:00;17.00;82.80
42135;DHT22;28312;43.460;11.810;2023-05-10T14:53:04;16.90;82.90
42135;DHT22;28312;43.460;11.810;2023-05-10T14:57:08;16.90;82.90
42135;DHT22;28312;43.460;11.810;2023-05-10T15:01:12;16.70;82.90
42135;DHT22;28312;43.460;11.810;2023-05-10T15:05:17;16.60;83.10
42135;DHT22;28312;43.460;11.810;2023-05-10T15:09:21;16.50;83.40
42135;DHT22;28312;43.460;11.810;2023-05-10T15:13:24;16.50;83.80
42135;DHT22;28312;43.460;11.810;2023-05-10T15:17:28;16.50;84.00
42135;DHT22;28312;43.460;11.810;2023-05-10T15:21:32;16.50;84.10
42135;DHT22;28312;43.460;11.810;2023-05-10T15:25:41;16.50;84.20
42135;DHT22;28312;43.460;11.810;2023-05-10T15:29:45;16.50;84.30
42135;DHT22;28312;43.460;11.810;2023-05-10T15:33:48;16.50;84.60
42135;DHT22;28312;43.460;11.810;2023-05-10T15:37:53;16.60;84.80
42135;DHT22;28312;43.460;11.810;2023-05-10T15:41:56;16.60;85.00
42135;DHT22;28312;43.460;11.810;2023-05-10T15:46:00;16.70;84.90
42135;DHT22;28312;43.460;11.810;2023-05-10T15:50:05;16.70;84.70
42135;DHT22;28312;43.460;11.810;2023-05-10T15:54:08;16.60;84.70
42135;DHT22;28312;43.460;11.810;2023-05-10T15:58:12;16.60;84.70
42135;DHT22;28312;43.460;11.810;2023-05-10T16:02:16;16.60;84.80
42135;DHT22;28312;43.460;11.810;2023-05-10T16:06:21;16.60;84.70
42135;DHT22;28312;43.460;11.810;2023-05-10T16:10:24;16.60;84.60
42135;DHT22;28312;43.460;11.810;2023-05-10T16:14:29;16.50;84.70
42135;DHT22;28312;43.460;11.810;2023-05-10T16:18:33;16.50;84.70
42135;DHT22;28312;43.460;11.810;2023-05-10T16:22:37;16.30;84.70
42135;DHT22;28312;43.460;11.810;2023-05-10T16:26:40;16.20;85.00
42135;DHT22;28312;43.460;11.810;2023-05-10T16:30:44;16.20;85.10
42135;DHT22;28312;43.460;11.810;2023-05-10T16:34:49;16.20;85.30
42135;DHT22;28312;43.460;11.810;2023-05-10T16:38:53;16.20;85.50
42135;DHT22;28312;43.460;11.810;2023-05-10T16:42:57;16.20;85.40
42135;DHT22;28312;43.460;11.810;2023-05-10T16:47:01;16.00;85.10
42135;DHT22;28312;43.460;11.810;2023-05-10T16:51:05;15.70;85.20
42135;DHT22;28312;43.460;11.810;2023-05-10T16:55:09;15.60;85.80
42135;DHT22;28312;43.460;11.810;2023-05-10T16:59:13;15.50;86.30
42135;DHT22;28312;43.460;11.810;2023-05-10T17:03:17;15.40;86.50
42135;DHT22;28312;43.460;11.810;2023-05-10T17:07:21;15.40;86.90
42135;DHT22;28312;43.460;11.810;2023-05-10T17:11:28;15.30;87.10
42135;DHT22;28312;43.460;11.810;2023-05-10T17:15:32;15.30;87.30
42135;DHT22;28312;43.460;11.810;2023-05-10T17:19:37;15.40;87.90
42135;DHT22;28312;43.460;11.810;2023-05-10T17:23:41;15.50;88.10
42135;DHT22;28312;43.460;11.810;2023-05-10T17:27:46;15.60;87.90
42135;DHT22;28312;43.460;11.810;2023-05-10T17:31:51;15.70;87.80
42135;DHT22;28312;43.460;11.810;2023-05-10T17:35:59;15.70;87.70
42135;DHT22;28312;43.460;11.810;2023-05-10T17:40:04;15.70;87.60
42135;DHT22;28312;43.460;11.810;2023-05-10T17:44:11;15.70;87.60
42135;DHT22;28312;43.460;11.810;2023-05-10T17:48:17;15.70;87.60
42135;DHT22;28312;43.460;11.810;2023-05-10T17:52:20;15.60;87.60
42135;DHT22;28312;43.460;11.810;2023-05-10T17:56:24;15.60;87.30
42135;DHT22;28312;43.460;11.810;2023-05-10T18:00:28;15.40;87.40
42135;DHT22;28312;43.460;11.810;2023-05-10T18:04:32;15.40;87.60
42135;DHT22;28312;43.460;11.810;2023-05-10T18:08:36;15.40;87.70
42135;DHT22;28312;43.460;11.810;2023-05-10T18:12:39;15.30;87.70
42135;DHT22;28312;43.460;11.810;2023-05-10T18:16:44;15.20;87.70
42135;DHT22;28312;43.460;11.810;2023-05-10T18:21:08;15.20;87.80
42135;DHT22;28312;43.460;11.810;2023-05-10T18:25:12;15.20;87.90
42135;DHT22;28312;43.460;11.810;2023-05-10T18:29:17;15.20;87.90
42135;DHT22;28312;43.460;11.810;2023-05-10T18:33:20;15.20;87.90
42135;DHT22;28312;43.460;11.810;2023-05-10T18:37:24;15.20;87.80
42135;DHT22;28312;43.460;11.810;2023-05-10T18:41:27;15.20;87.90
42135;DHT22;28312;43.460;11.810;2023-05-10T18:45:31;15.10;87.90
42135;DHT22;28312;43.460;11.810;2023-05-10T18:49:34;15.00;87.90
42135;DHT22;28312;43.460;11.810;2023-05-10T18:53:38;15.00;88.10
42135;DHT22;28312;43.460;11.810;2023-05-10T18:57:41;15.10;88.10
42135;DHT22;28312;43.460;11.810;2023-05-10T19:01:45;15.00;88.10
42135;DHT22;28312;43.460;11.810;2023-05-10T19:05:53;15.10;88.10
42135;DHT22;28312;43.460;11.810;2023-05-10T19:09:58;15.10;87.90
42135;DHT22;28312;43.460;11.810;2023-05-10T19:14:02;15.10;88.00
42135;DHT22;28312;43.460;11.810;2023-05-10T19:18:07;15.10;87.90
42135;DHT22;28312;43.460;11.810;2023-05-10T19:22:11;15.10;87.70
42135;DHT22;28312;43.460;11.810;2023-05-10T19:26:16;15.10;87.50
42135;DHT22;28312;43.460;11.810;2023-05-10T19:30:20;15.00;87.70
42135;DHT22;28312;43.460;11.810;2023-05-10T19:34:24;15.00;87.80
42135;DHT22;28312;43.460;11.810;2023-05-10T19:38:27;14.90;87.90
42135;DHT22;28312;43.460;11.810;2023-05-10T19:42:31;14.90;87.90
42135;DHT22;28312;43.460;11.810;2023-05-10T19:46:35;14.90;87.80
42135;DHT22;28312;43.460;11.810;2023-05-10T19:50:38;14.90;87.80
42135;DHT22;28312;43.460;11.810;2023-05-10T19:54:42;14.80;87.80
42135;DHT22;28312;43.460;11.810;2023-05-10T19:58:47;14.70;88.00
42135;DHT22;28312;43.460;11.810;2023-05-10T20:02:50;14.70;88.00
42135;DHT22;28312;43.460;11.810;2023-05-10T20:06:54;14.60;88.00
42135;DHT22;28312;43.460;11.810;2023-05-10T20:10:57;14.50;88.00
42135;DHT22;28312;43.460;11.810;2023-05-10T20:15:06;14.50;88.20
42135;DHT22;28312;43.460;11.810;2023-05-10T20:19:10;14.40;88.20
42135;DHT22;28312;43.460;11.810;2023-05-10T20:23:14;14.30;88.30
42135;DHT22;28312;43.460;11.810;2023-05-10T20:27:17;14.30;88.30
42135;DHT22;28312;43.460;11.810;2023-05-10T20:31:25;14.30;88.30
42135;DHT22;28312;43.460;11.810;2023-05-10T20:35:29;14.30;88.30
42135;DHT22;28312;43.460;11.810;2023-05-10T20:39:34;14.20;88.40
42135;DHT22;28312;43.460;11.810;2023-05-10T20:43:39;14.20;88.20
42135;DHT22;28312;43.460;11.810;2023-05-10T20:47:43;14.20;88.20
42135;DHT22;28312;43.460;11.810;2023-05-10T20:51:46;14.30;88.20
42135;DHT22;28312;43.460;11.810;2023-05-10T20:55:50;14.30;88.20
42135;DHT22;28312;43.460;11.810;2023-05-10T20:59:53;14.30;88.00
42135;DHT22;28312;43.460;11.810;2023-05-10T21:03:57;14.30;87.90
42135;DHT22;28312;43.460;11.810;2023-05-10T21:08:01;14.20;87.90
42135;DHT22;28312;43.460;11.810;2023-05-10T21:12:05;14.30;87.70
42135;DHT22;28312;43.460;11.810;2023-05-10T21:16:08;14.30;87.70
42135;DHT22;28312;43.460;11.810;2023-05-10T21:20:12;14.20;87.70
42135;DHT22;28312;43.460;11.810;2023-05-10T21:24:16;14.20;87.80
42135;DHT22;28312;43.460;11.810;2023-05-10T21:28:19;14.20;87.70
42135;DHT22;28312;43.460;11.810;2023-05-10T21:32:23;14.10;87.80
42135;DHT22;28312;43.460;11.810;2023-05-10T21:36:27;13.90;87.90
42135;DHT22;28312;43.460;11.810;2023-05-10T21:40:31;13.80;88.00
42135;DHT22;28312;43.460;11.810;2023-05-10T21:44:34;13.80;88.10
42135;DHT22;28312;43.460;11.810;2023-05-10T21:48:40;13.70;88.10
42135;DHT22;28312;43.460;11.810;2023-05-10T21:52:43;13.70;88.10
42135;DHT22;28312;43.460;11.810;2023-05-10T21:56:47;13.60;88.00
42135;DHT22;28312;43.460;11.810;2023-05-10T22:00:51;13.50;88.00
42135;DHT22;28312;43.460;11.810;2023-05-10T22:04:54;13.50;88.00
42135;DHT22;28312;43.460;11.810;2023-05-10T22:08:58;13.40;88.00
42135;DHT22;28312;43.460;11.810;2023-05-10T22:13:02;13.40;88.00
42135;DHT22;28312;43.460;11.810;2023-05-10T22:17:07;13.30;88.10
42135;DHT22;28312;43.460;11.810;2023-05-10T22:21:12;13.30;88.00
42135;DHT22;28312;43.460;11.810;2023-05-10T22:25:15;13.30;88.10
42135;DHT22;28312;43.460;11.810;2023-05-10T22:29:19;13.20;88.00
42135;DHT22;28312;43.460;11.810;2023-05-10T22:33:22;13.20;88.00
42135;DHT22;28312;43.460;11.810;2023-05-10T22:37:26;13.20;88.00
42135;DHT22;28312;43.460;11.810;2023-05-10T22:41:29;13.20;88.10
42135;DHT22;28312;43.460;11.810;2023-05-10T22:45:33;13.20;88.20
42135;DHT22;28312;43.460;11.810;2023-05-10T22:49:37;13.30;88.10
42135;DHT22;28312;43.460;11.810;2023-05-10T22:53:40;13.30;88.10
42135;DHT22;28312;43.460;11.810;2023-05-10T22:57:44;13.20;88.10
42135;DHT22;28312;43.460;11.810;2023-05-10T23:01:48;13.30;88.10
42135;DHT22;28312;43.460;11.810;2023-05-10T23:05:52;13.30;88.10
42135;DHT22;28312;43.460;11.810;2023-05-10T23:09:58;13.20;88.10
42135;DHT22;28312;43.460;11.810;2023-05-10T23:14:01;13.20;88.00
42135;DHT22;28312;43.460;11.810;2023-05-10T23:18:06;13.20;88.00
42135;DHT22;28312;43.460;11.810;2023-05-10T23:22:10;13.20;88.10
42135;DHT22;28312;43.460;11.810;2023-05-10T23:26:14;13.20;88.00
42135;DHT22;28312;43.460;11.810;2023-05-10T23:30:17;13.20;87.80
42135;DHT22;28312;43.460;11.810;2023-05-10T23:34:21;13.20;87.60
42135;DHT22;28312;43.460;11.810;2023-05-10T23:38:24;13.20;87.60
42135;DHT22;28312;43.460;11.810;2023-05-10T23:42:28;13.20;87.60
42135;DHT22;28312;43.460;11.810;2023-05-10T23:46:32;13.10;87.60
42135;DHT22;28312;43.460;11.810;2023-05-10T23:50:35;13.20;87.60
42135;DHT22;28312;43.460;11.810;2023-05-10T23:54:39;13.10;87.50
42135;DHT22;28312;43.460;11.810;2023-05-10T23:58:42;13.10;87.50
